Time;durP1;ratioP1;P1;durP2;ratioP2;P2;SDS_P1;SDS_P2;PMS_P1;PMS_P2;Temp;Humidity;BMP_temperature;BMP_pressure;BME280_temperature;BME280_humidity;BME280_pressure;Samples;Min_cycle;Max_cycle;Signal;HPM_P1;HPM_P2
2023/09/02 00:01:36;;;;;;;6.03;2.40;;;;;;;;;;7390204;19;20078;-71
2023/09/02 00:04:02;;;;;;;4.70;2.60;;;;;;;;;;7367747;19;20457;-72
2023/09/02 00:06:28;;;;;;;5.72;3.05;;;;;;;;;;7368347;19;20568;-72
2023/09/02 00:08:54;;;;;;;4.95;2.85;;;;;;;;;;7368681;19;20039;-72
2023/09/02 00:11:19;;;;;;;6.70;2.90;;;;;;;;;;7369231;19;20002;-72
2023/09/02 00:13:44;;;;;;;6.95;2.72;;;;;;;;;;7390282;19;20012;-72
2023/09/02 00:16:10;;;;;;;6.78;2.63;;;;;;;;;;7366880;19;20023;-71
2023/09/02 00:18:35;;;;;;;5.72;2.58;;;;;;;;;;7369142;19;20006;-72
2023/09/02 00:21:00;;;;;;;4.95;2.65;;;;;;;;;;7369944;19;20018;-71
2023/09/02 00:23:26;;;;;;;6.05;3.03;;;;;;;;;;7368520;19;20017;-73
2023/09/02 00:25:51;;;;;;;5.85;3.00;;;;;;;;;;7368194;19;20375;-73
2023/09/02 00:28:16;;;;;;;5.80;2.72;;;;;;;;;;7390261;19;20533;-72
2023/09/02 00:30:42;;;;;;;4.53;2.67;;;;;;;;;;7369169;19;20023;-73
2023/09/02 00:33:07;;;;;;;6.18;3.17;;;;;;;;;;7366995;19;20536;-72
2023/09/02 00:35:32;;;;;;;12.68;3.00;;;;;;;;;;7366310;19;20010;-73
2023/09/02 00:37:58;;;;;;;8.57;3.05;;;;;;;;;;7368464;19;20014;-72
2023/09/02 00:40:26;;;;;;;6.20;2.92;;;;;;;;;;7391400;19;19998;-72
2023/09/02 00:42:53;;;;;;;6.10;2.67;;;;;;;;;;7369870;19;20013;-72
2023/09/02 00:45:21;;;;;;;7.70;2.90;;;;;;;;;;7368574;19;20018;-72
2023/09/02 00:47:49;;;;;;;4.93;2.75;;;;;;;;;;7368364;19;20015;-73
2023/09/02 00:50:14;;;;;;;5.47;2.72;;;;;;;;;;7371883;19;20118;-72
2023/09/02 00:52:40;;;;;;;7.63;2.65;;;;;;;;;;7397713;19;20040;-73
2023/09/02 00:55:06;;;;;;;4.50;2.80;;;;;;;;;;7365213;19;20017;-72
2023/09/02 00:57:31;;;;;;;4.40;2.60;;;;;;;;;;7366290;19;20014;-72
2023/09/02 00:59:56;;;;;;;6.38;3.10;;;;;;;;;;7368139;19;20014;-71
2023/09/02 01:02:22;;;;;;;4.55;2.70;;;;;;;;;;7367622;19;20002;-72
2023/09/02 01:04:48;;;;;;;4.57;2.67;;;;;;;;;;7388486;19;20055;-71
2023/09/02 01:07:14;;;;;;;6.03;2.80;;;;;;;;;;7368097;19;20014;-72
2023/09/02 01:09:40;;;;;;;4.22;2.78;;;;;;;;;;7367315;19;20034;-72
2023/09/02 01:12:06;;;;;;;3.90;2.70;;;;;;;;;;7367551;19;20012;-72
2023/09/02 01:14:32;;;;;;;4.80;2.70;;;;;;;;;;7365838;19;20022;-72
2023/09/02 01:16:57;;;;;;;4.18;2.60;;;;;;;;;;7366668;19;20011;-72
2023/09/02 01:19:22;;;;;;;5.15;2.70;;;;;;;;;;7389706;19;20006;-72
2023/09/02 01:22:09;;;;;;;4.50;2.75;;;;;;;;;;7365271;19;20011;-72
2023/09/02 01:24:34;;;;;;;5.50;3.10;;;;;;;;;;7364091;19;20437;-73
2023/09/02 01:27:36;;;;;;;4.60;3.00;;;;;;;;;;7368199;19;20080;-72
2023/09/02 01:30:05;;;;;;;6.22;2.97;;;;;;;;;;7364693;19;20864;-72
2023/09/02 01:32:38;;;;;;;5.45;3.10;;;;;;;;;;7366226;19;20070;-72
2023/09/02 01:35:06;;;;;;;4.38;2.60;;;;;;;;;;7365231;19;20010;-72
2023/09/02 01:37:42;;;;;;;5.70;3.40;;;;;;;;;;7389282;19;20070;-72
2023/09/02 01:40:10;;;;;;;4.97;2.90;;;;;;;;;;7366611;19;20007;-72
2023/09/02 01:42:35;;;;;;;5.28;2.78;;;;;;;;;;7365393;19;20026;-72
2023/09/02 01:45:01;;;;;;;4.32;2.63;;;;;;;;;;7365897;19;20014;-72
2023/09/02 01:47:28;;;;;;;6.78;2.63;;;;;;;;;;7366475;19;20483;-71
2023/09/02 01:49:54;;;;;;;5.93;2.42;;;;;;;;;;7367060;19;20097;-73
2023/09/02 01:52:20;;;;;;;6.10;3.53;;;;;;;;;;7387302;19;20006;-72
2023/09/02 01:54:46;;;;;;;7.22;3.80;;;;;;;;;;7363970;19;20009;-73
2023/09/02 01:57:12;;;;;;;6.25;3.67;;;;;;;;;;7366621;19;20006;-73
2023/09/02 01:59:37;;;;;;;6.10;3.65;;;;;;;;;;7366913;19;20685;-72
2023/09/02 02:02:03;;;;;;;10.07;4.00;;;;;;;;;;7364536;19;20138;-73
2023/09/02 02:04:35;;;;;;;7.07;3.92;;;;;;;;;;7385862;19;20014;-72
2023/09/02 02:07:05;;;;;;;9.70;3.90;;;;;;;;;;7367468;19;20082;-73
2023/09/02 02:09:42;;;;;;;10.38;4.03;;;;;;;;;;7373401;19;20115;-73
2023/09/02 02:12:08;;;;;;;7.72;3.75;;;;;;;;;;7372506;19;20022;-72
2023/09/02 02:14:34;;;;;;;8.38;4.00;;;;;;;;;;7379022;19;20041;-72
2023/09/02 02:17:01;;;;;;;6.03;3.78;;;;;;;;;;7377351;19;19998;-72
2023/09/02 02:19:26;;;;;;;6.38;3.97;;;;;;;;;;7395832;19;20000;-73
2023/09/02 02:21:52;;;;;;;5.57;3.63;;;;;;;;;;7373466;19;19998;-73
2023/09/02 02:24:17;;;;;;;6.20;3.83;;;;;;;;;;7372821;19;20010;-73
2023/09/02 02:26:42;;;;;;;7.63;4.05;;;;;;;;;;7372213;19;20041;-73
2023/09/02 02:29:08;;;;;;;6.47;3.85;;;;;;;;;;7373640;19;20011;-73
2023/09/02 02:31:34;;;;;;;8.50;3.97;;;;;;;;;;7395348;19;19998;-73
2023/09/02 02:33:59;;;;;;;6.63;3.63;;;;;;;;;;7371806;19;20013;-72
2023/09/02 02:36:25;;;;;;;7.75;3.97;;;;;;;;;;7372367;19;20010;-72
2023/09/02 02:38:50;;;;;;;6.88;4.03;;;;;;;;;;7372784;19;20006;-72
2023/09/02 02:41:15;;;;;;;10.13;4.25;;;;;;;;;;7373237;19;20078;-72
2023/09/02 02:43:41;;;;;;;6.10;3.92;;;;;;;;;;7393542;19;20487;-72
2023/09/02 02:46:06;;;;;;;8.85;4.00;;;;;;;;;;7372074;19;20002;-72
2023/09/02 02:48:31;;;;;;;8.55;4.28;;;;;;;;;;7372635;19;20027;-72
2023/09/02 02:50:57;;;;;;;7.45;4.15;;;;;;;;;;7372849;19;20010;-72
2023/09/02 02:53:23;;;;;;;6.93;4.00;;;;;;;;;;7368935;19;20018;-72
2023/09/02 02:55:48;;;;;;;7.00;4.25;;;;;;;;;;7391822;19;20684;-73
2023/09/02 02:58:15;;;;;;;7.03;3.78;;;;;;;;;;7374079;19;20018;-72
2023/09/02 03:00:42;;;;;;;5.80;3.50;;;;;;;;;;7375936;19;20015;-72
2023/09/02 03:03:08;;;;;;;6.55;3.38;;;;;;;;;;7373829;19;20007;-73
2023/09/02 03:05:37;;;;;;;7.15;3.75;;;;;;;;;;7368673;19;20034;-73
2023/09/02 03:08:07;;;;;;;5.95;3.63;;;;;;;;;;7371949;19;20032;-72
2023/09/02 03:10:35;;;;;;;6.28;3.58;;;;;;;;;;7393827;19;20501;-73
2023/09/02 03:13:01;;;;;;;5.97;3.60;;;;;;;;;;7368511;19;20018;-73
2023/09/02 03:15:26;;;;;;;6.00;3.70;;;;;;;;;;7368299;19;20045;-73
2023/09/02 03:17:51;;;;;;;5.68;3.63;;;;;;;;;;7370106;19;20007;-73
2023/09/02 03:20:17;;;;;;;5.45;3.50;;;;;;;;;;7368552;19;20146;-72
2023/09/02 03:22:42;;;;;;;6.03;4.07;;;;;;;;;;7392696;19;20010;-72
2023/09/02 03:25:08;;;;;;;7.53;3.70;;;;;;;;;;7367680;19;20692;-73
2023/09/02 03:27:40;;;;;;;6.13;3.88;;;;;;;;;;7370513;19;20522;-72
2023/09/02 03:30:07;;;;;;;6.68;4.40;;;;;;;;;;7370874;19;20021;-72
2023/09/02 03:32:32;;;;;;;8.40;4.60;;;;;;;;;;7370896;19;20028;-72
2023/09/02 03:34:58;;;;;;;7.75;4.65;;;;;;;;;;7368398;19;20023;-73
2023/09/02 03:37:24;;;;;;;7.85;5.05;;;;;;;;;;7397924;19;19999;-72
2023/09/02 03:39:49;;;;;;;9.93;4.70;;;;;;;;;;7374927;19;20021;-72
2023/09/02 03:42:14;;;;;;;9.32;5.15;;;;;;;;;;7371296;19;20496;-72
2023/09/02 03:44:39;;;;;;;7.57;5.00;;;;;;;;;;7369116;19;20527;-72
2023/09/02 03:47:05;;;;;;;9.20;6.05;;;;;;;;;;7370867;19;20003;-73
2023/09/02 03:49:30;;;;;;;9.82;5.88;;;;;;;;;;7391352;19;20006;-72
2023/09/02 03:51:55;;;;;;;8.38;5.25;;;;;;;;;;7369662;19;20029;-72
2023/09/02 03:54:21;;;;;;;8.82;5.93;;;;;;;;;;7367621;19;20451;-72
2023/09/02 03:56:46;;;;;;;8.60;5.97;;;;;;;;;;7370712;19;20007;-72
2023/09/02 03:59:12;;;;;;;8.98;5.57;;;;;;;;;;7372700;19;20006;-72
2023/09/02 04:01:37;;;;;;;9.90;5.80;;;;;;;;;;7391617;19;20003;-71
2023/09/02 04:04:03;;;;;;;11.50;5.95;;;;;;;;;;7367959;19;20002;-72
2023/09/02 04:06:28;;;;;;;10.43;5.28;;;;;;;;;;7367148;19;20130;-72
2023/09/02 04:08:53;;;;;;;8.52;5.47;;;;;;;;;;7369805;19;20018;-72
2023/09/02 04:11:19;;;;;;;9.60;6.07;;;;;;;;;;7369282;19;20917;-72
2023/09/02 04:13:44;;;;;;;8.95;5.63;;;;;;;;;;7390141;19;20102;-73
2023/09/02 04:16:10;;;;;;;9.15;5.55;;;;;;;;;;7367242;19;20005;-72
2023/09/02 04:18:36;;;;;;;8.65;5.53;;;;;;;;;;7368454;19;20035;-73
2023/09/02 04:21:03;;;;;;;8.45;5.53;;;;;;;;;;7368270;19;20484;-72
2023/09/02 04:23:29;;;;;;;10.13;5.40;;;;;;;;;;7369135;19;20465;-71
2023/09/02 04:25:57;;;;;;;9.43;5.72;;;;;;;;;;7368575;19;20028;-71
2023/09/02 04:28:22;;;;;;;10.20;6.15;;;;;;;;;;7390202;19;20009;-72
2023/09/02 04:30:48;;;;;;;11.32;6.05;;;;;;;;;;7367912;19;20687;-72
2023/09/02 04:33:14;;;;;;;9.82;5.57;;;;;;;;;;7368424;19;20081;-72
2023/09/02 04:35:41;;;;;;;9.77;6.35;;;;;;;;;;7366194;19;20014;-72
2023/09/02 04:38:07;;;;;;;9.85;5.72;;;;;;;;;;7369267;19;20104;-74
2023/09/02 04:40:43;;;;;;;12.02;6.32;;;;;;;;;;7390224;19;20022;-73
2023/09/02 04:43:10;;;;;;;11.15;5.72;;;;;;;;;;7368131;19;20480;-73
2023/09/02 04:45:37;;;;;;;9.70;6.00;;;;;;;;;;7365610;19;20014;-73
2023/09/02 04:48:04;;;;;;;10.45;6.38;;;;;;;;;;7366663;19;20433;-73
2023/09/02 04:50:30;;;;;;;11.82;6.05;;;;;;;;;;7364594;19;20010;-73
2023/09/02 04:52:56;;;;;;;10.35;6.10;;;;;;;;;;7365433;19;20007;-71
2023/09/02 04:55:24;;;;;;;13.88;7.10;;;;;;;;;;7387141;19;20010;-72
2023/09/02 04:57:50;;;;;;;11.05;6.53;;;;;;;;;;7366701;19;20115;-72
2023/09/02 05:00:16;;;;;;;10.38;6.10;;;;;;;;;;7366833;19;20107;-74
2023/09/02 05:02:46;;;;;;;13.18;6.72;;;;;;;;;;7371412;19;20073;-72
2023/09/02 05:05:12;;;;;;;13.57;6.77;;;;;;;;;;7365238;19;20078;-72
2023/09/02 05:07:37;;;;;;;9.10;5.57;;;;;;;;;;7389841;19;20013;-71
2023/09/02 05:10:03;;;;;;;11.93;6.45;;;;;;;;;;7367676;19;20034;-73
2023/09/02 05:12:28;;;;;;;10.43;6.53;;;;;;;;;;7366285;19;20628;-71
2023/09/02 05:14:54;;;;;;;12.77;6.22;;;;;;;;;;7367031;19;20471;-73
2023/09/02 05:17:19;;;;;;;14.48;6.65;;;;;;;;;;7369457;19;20014;-73
2023/09/02 05:19:45;;;;;;;10.15;6.45;;;;;;;;;;7390644;19;20002;-72
2023/09/02 05:22:10;;;;;;;11.82;6.45;;;;;;;;;;7367988;19;20377;-72
2023/09/02 05:24:35;;;;;;;10.32;6.43;;;;;;;;;;7365999;19;20010;-73
2023/09/02 05:27:00;;;;;;;9.80;6.15;;;;;;;;;;7367280;19;20006;-72
2023/09/02 05:29:26;;;;;;;15.43;6.18;;;;;;;;;;7367988;19;20031;-73
2023/09/02 05:31:51;;;;;;;14.82;6.03;;;;;;;;;;7366748;19;20010;-71
2023/09/02 05:34:16;;;;;;;12.07;5.53;;;;;;;;;;7388317;19;20013;-72
2023/09/02 05:36:42;;;;;;;11.57;5.90;;;;;;;;;;7366784;19;20003;-72
2023/09/02 05:39:07;;;;;;;9.82;5.82;;;;;;;;;;7367368;19;20003;-72
2023/09/02 05:41:33;;;;;;;13.50;5.95;;;;;;;;;;7366847;19;20747;-72
2023/09/02 05:43:58;;;;;;;8.95;4.50;;;;;;;;;;7372592;19;20002;-72
2023/09/02 05:46:23;;;;;;;10.95;5.30;;;;;;;;;;7393876;19;20014;-74
2023/09/02 05:48:49;;;;;;;7.30;4.72;;;;;;;;;;7372937;19;20041;-73
2023/09/02 05:51:14;;;;;;;9.13;4.25;;;;;;;;;;7373551;19;20017;-72
2023/09/02 05:53:39;;;;;;;9.00;3.80;;;;;;;;;;7372001;19;20014;-72
2023/09/02 05:56:05;;;;;;;6.40;3.97;;;;;;;;;;7372623;19;20002;-72
2023/09/02 05:58:30;;;;;;;6.20;3.72;;;;;;;;;;7395983;19;20006;-72
2023/09/02 06:00:58;;;;;;;4.65;3.05;;;;;;;;;;7372343;19;20863;-72
2023/09/02 06:03:24;;;;;;;5.38;3.00;;;;;;;;;;7372708;19;20034;-72
2023/09/02 06:05:49;;;;;;;7.40;2.85;;;;;;;;;;7371355;19;20447;-71
2023/09/02 06:08:15;;;;;;;5.07;2.97;;;;;;;;;;7372951;19;20027;-72
2023/09/02 06:10:40;;;;;;;6.55;3.05;;;;;;;;;;7395726;19;20336;-71
2023/09/02 06:13:06;;;;;;;4.40;2.70;;;;;;;;;;7370818;19;20015;-72
2023/09/02 06:15:31;;;;;;;6.18;2.90;;;;;;;;;;7371166;19;20074;-72
2023/09/02 06:17:56;;;;;;;5.85;3.10;;;;;;;;;;7373685;19;20030;-72
2023/09/02 06:20:27;;;;;;;7.05;3.40;;;;;;;;;;7374034;19;20014;-72
2023/09/02 06:22:52;;;;;;;7.82;2.95;;;;;;;;;;7374484;19;20412;-72
2023/09/02 06:25:18;;;;;;;4.75;3.10;;;;;;;;;;7393898;19;20002;-72
2023/09/02 06:27:43;;;;;;;7.30;3.00;;;;;;;;;;7373856;19;20373;-71
2023/09/02 06:30:09;;;;;;;5.10;3.28;;;;;;;;;;7373505;19;20035;-71
2023/09/02 06:32:34;;;;;;;4.80;2.97;;;;;;;;;;7373234;19;20023;-72
2023/09/02 06:35:00;;;;;;;4.95;2.97;;;;;;;;;;7370967;19;20046;-72
2023/09/02 06:37:28;;;;;;;5.43;2.92;;;;;;;;;;7395672;19;20002;-72
2023/09/02 06:39:54;;;;;;;5.85;3.30;;;;;;;;;;7372923;19;20089;-73
2023/09/02 06:42:19;;;;;;;7.50;3.75;;;;;;;;;;7372477;19;20012;-71
2023/09/02 06:44:47;;;;;;;6.82;4.15;;;;;;;;;;7371487;19;20017;-71
2023/09/02 06:47:13;;;;;;;7.10;3.92;;;;;;;;;;7373627;19;20368;-71
2023/09/02 06:49:38;;;;;;;6.85;4.40;;;;;;;;;;7394884;19;20010;-72
2023/09/02 06:52:04;;;;;;;7.03;5.05;;;;;;;;;;7371813;19;20011;-71
2023/09/02 06:54:29;;;;;;;10.55;7.43;;;;;;;;;;7369688;19;20026;-72
2023/09/02 06:56:54;;;;;;;10.45;6.65;;;;;;;;;;7378451;19;20007;-71
2023/09/02 06:59:20;;;;;;;8.48;5.97;;;;;;;;;;7385083;19;20103;-72
2023/09/02 07:01:45;;;;;;;8.38;6.00;;;;;;;;;;7402962;19;20005;-72
2023/09/02 07:04:10;;;;;;;10.52;7.20;;;;;;;;;;7372457;19;20006;-71
2023/09/02 07:06:36;;;;;;;11.27;6.32;;;;;;;;;;7371197;19;20007;-72
2023/09/02 07:09:02;;;;;;;10.13;6.78;;;;;;;;;;7372664;19;20082;-72
2023/09/02 07:11:27;;;;;;;10.23;6.97;;;;;;;;;;7371278;19;20006;-72
2023/09/02 07:13:53;;;;;;;9.55;6.07;;;;;;;;;;7372140;19;20007;-71
2023/09/02 07:16:19;;;;;;;8.52;6.07;;;;;;;;;;7393299;19;20022;-72
2023/09/02 07:18:45;;;;;;;8.25;5.55;;;;;;;;;;7373629;19;20390;-72
2023/09/02 07:21:11;;;;;;;7.53;5.30;;;;;;;;;;7372401;19;20055;-71
2023/09/02 07:23:37;;;;;;;8.05;6.05;;;;;;;;;;7372158;19;20897;-71
2023/09/02 07:26:05;;;;;;;8.25;5.50;;;;;;;;;;7370763;19;20002;-71
2023/09/02 07:28:31;;;;;;;8.57;6.10;;;;;;;;;;7394016;19;20033;-71
2023/09/02 07:31:05;;;;;;;9.80;6.68;;;;;;;;;;7370041;19;20006;-71
2023/09/02 07:33:31;;;;;;;9.43;6.80;;;;;;;;;;7370367;19;20065;-72
2023/09/02 07:35:57;;;;;;;7.97;6.10;;;;;;;;;;7370689;19;20002;-72
2023/09/02 07:38:23;;;;;;;8.88;6.22;;;;;;;;;;7370911;19;20010;-71
2023/09/02 07:40:48;;;;;;;8.20;6.05;;;;;;;;;;7390674;19;19999;-71
2023/09/02 07:43:14;;;;;;;9.57;6.07;;;;;;;;;;7377520;19;20003;-71
2023/09/02 07:45:40;;;;;;;8.55;6.38;;;;;;;;;;7370317;19;20034;-71
2023/09/02 07:48:05;;;;;;;8.80;6.30;;;;;;;;;;7378025;19;20333;-71
2023/09/02 07:50:31;;;;;;;8.70;6.22;;;;;;;;;;7371686;19;20010;-72
2023/09/02 07:52:56;;;;;;;8.27;6.40;;;;;;;;;;7368929;19;20355;-71
2023/09/02 07:55:23;;;;;;;8.23;5.93;;;;;;;;;;7389874;19;20006;-72
2023/09/02 07:57:48;;;;;;;8.52;6.20;;;;;;;;;;7370843;19;20591;-72
2023/09/02 08:00:13;;;;;;;10.52;7.80;;;;;;;;;;7371726;19;20014;-72
2023/09/02 08:02:39;;;;;;;8.40;6.40;;;;;;;;;;7369515;19;20003;-72
2023/09/02 08:05:05;;;;;;;9.27;6.95;;;;;;;;;;7367434;19;20013;-72
2023/09/02 08:07:33;;;;;;;9.40;6.30;;;;;;;;;;7392010;19;20471;-73
2023/09/02 08:09:58;;;;;;;7.85;6.03;;;;;;;;;;7371022;19;20057;-72
2023/09/02 08:12:24;;;;;;;7.80;5.70;;;;;;;;;;7369995;19;20011;-72
2023/09/02 08:14:49;;;;;;;9.30;5.97;;;;;;;;;;7368635;19;20688;-72
2023/09/02 08:17:15;;;;;;;8.77;6.45;;;;;;;;;;7370482;19;20006;-72
2023/09/02 08:19:40;;;;;;;7.88;6.40;;;;;;;;;;7391976;19;20005;-71
2023/09/02 08:22:05;;;;;;;8.52;6.72;;;;;;;;;;7369078;19;20494;-71
2023/09/02 08:24:31;;;;;;;8.25;6.35;;;;;;;;;;7368438;19;20027;-71
2023/09/02 08:26:56;;;;;;;6.97;5.60;;;;;;;;;;7369121;19;20041;-71
2023/09/02 08:29:22;;;;;;;6.47;4.88;;;;;;;;;;7369721;19;20013;-71
2023/09/02 08:31:54;;;;;;;6.13;4.75;;;;;;;;;;7391360;19;20031;-71
2023/09/02 08:34:20;;;;;;;6.70;5.07;;;;;;;;;;7368731;19;20013;-71
2023/09/02 08:36:45;;;;;;;7.13;4.93;;;;;;;;;;7367815;19;20465;-72
2023/09/02 08:39:10;;;;;;;7.28;5.00;;;;;;;;;;7368657;19;20006;-72
2023/09/02 08:41:38;;;;;;;6.15;4.47;;;;;;;;;;7368440;19;20010;-72
2023/09/02 08:44:04;;;;;;;6.65;5.20;;;;;;;;;;7368470;19;20010;-72
2023/09/02 08:46:31;;;;;;;6.25;4.75;;;;;;;;;;7389727;19;20006;-71
2023/09/02 08:48:58;;;;;;;8.15;6.05;;;;;;;;;;7367139;19;20067;-73
2023/09/02 08:51:26;;;;;;;7.82;6.15;;;;;;;;;;7368080;19;20108;-72
2023/09/02 08:53:54;;;;;;;6.57;5.18;;;;;;;;;;7368215;19;20006;-71
2023/09/02 08:56:21;;;;;;;9.02;4.63;;;;;;;;;;7368668;19;20035;-72
2023/09/02 08:58:47;;;;;;;7.43;4.93;;;;;;;;;;7391061;19;20006;-72
2023/09/02 09:01:17;;;;;;;5.80;4.15;;;;;;;;;;7368055;19;20017;-72
2023/09/02 09:03:47;;;;;;;5.13;3.88;;;;;;;;;;7368242;19;20057;-71
2023/09/02 09:06:13;;;;;;;6.53;4.20;;;;;;;;;;7366998;19;20030;-72
2023/09/02 09:08:39;;;;;;;5.65;3.95;;;;;;;;;;7368301;19;20070;-71
2023/09/02 09:11:06;;;;;;;4.93;4.00;;;;;;;;;;7374916;19;20006;-71
2023/09/02 09:13:33;;;;;;;5.15;3.40;;;;;;;;;;7389324;19;19998;-71
2023/09/02 09:16:03;;;;;;;5.47;3.45;;;;;;;;;;7366635;19;20129;-71
2023/09/02 09:18:28;;;;;;;5.43;3.95;;;;;;;;;;7365662;19;20006;-71
2023/09/02 09:20:54;;;;;;;5.30;3.88;;;;;;;;;;7367464;19;20023;-72
2023/09/02 09:23:19;;;;;;;7.60;3.83;;;;;;;;;;7367550;19;20041;-71
2023/09/02 09:25:49;;;;;;;4.80;3.38;;;;;;;;;;7387066;19;20025;-71
2023/09/02 09:28:15;;;;;;;4.18;3.15;;;;;;;;;;7368459;19;20480;-71
2023/09/02 09:30:40;;;;;;;6.13;3.80;;;;;;;;;;7367505;19;20006;-72
2023/09/02 09:33:06;;;;;;;6.03;3.20;;;;;;;;;;7367012;19;20014;-72
2023/09/02 09:35:32;;;;;;;4.78;3.28;;;;;;;;;;7365857;19;20188;-71
2023/09/02 09:37:58;;;;;;;6.38;3.13;;;;;;;;;;7368007;19;20081;-71
2023/09/02 09:40:32;;;;;;;4.22;3.10;;;;;;;;;;7390299;19;20566;-71
2023/09/02 09:42:59;;;;;;;5.50;3.42;;;;;;;;;;7367035;19;20016;-71
2023/09/02 09:45:26;;;;;;;8.68;3.53;;;;;;;;;;7366391;19;20015;-73
2023/09/02 09:47:51;;;;;;;4.95;3.30;;;;;;;;;;7367618;19;20039;-71
2023/09/02 09:50:17;;;;;;;30.05;7.57;;;;;;;;;;7368864;19;20011;-70
2023/09/02 09:53:02;;;;;;;6.95;3.15;;;;;;;;;;7389101;19;20011;-71
2023/09/02 09:55:31;;;;;;;14.23;3.67;;;;;;;;;;7365093;19;20007;-72
2023/09/02 09:57:58;;;;;;;27.60;4.72;;;;;;;;;;7367365;19;20007;-71
2023/09/02 10:00:24;;;;;;;10.95;3.10;;;;;;;;;;7368043;19;20006;-70
2023/09/02 10:02:54;;;;;;;3.72;2.55;;;;;;;;;;7365070;19;20042;-71
2023/09/02 10:05:33;;;;;;;5.65;2.78;;;;;;;;;;7365307;19;20010;-69
2023/09/02 10:08:01;;;;;;;4.55;3.03;;;;;;;;;;7367803;19;20014;-70
2023/09/02 10:10:40;;;;;;;3.90;2.60;;;;;;;;;;7388723;19;20027;-71
2023/09/02 10:13:05;;;;;;;3.38;2.30;;;;;;;;;;7365232;19;20035;-70
2023/09/02 10:15:31;;;;;;;4.32;2.45;;;;;;;;;;7365778;19;20006;-71
2023/09/02 10:18:01;;;;;;;6.63;2.60;;;;;;;;;;7367377;19;20011;-70
2023/09/02 10:20:28;;;;;;;4.75;2.67;;;;;;;;;;7367729;19;20017;-70
2023/09/02 10:22:57;;;;;;;4.82;2.50;;;;;;;;;;7367325;19;20077;-70
2023/09/02 10:25:24;;;;;;;4.85;2.90;;;;;;;;;;7385145;19;20010;-70
2023/09/02 10:28:11;;;;;;;3.53;2.40;;;;;;;;;;7365920;19;20074;-71
2023/09/02 10:30:42;;;;;;;3.97;2.22;;;;;;;;;;7374607;19;20046;-71
2023/09/02 10:33:14;;;;;;;5.68;2.45;;;;;;;;;;7376247;19;20087;-71
2023/09/02 10:35:47;;;;;;;4.18;1.90;;;;;;;;;;7376086;19;20054;-70
2023/09/02 10:38:19;;;;;;;4.25;2.40;;;;;;;;;;7373989;19;20002;-70
2023/09/02 10:40:49;;;;;;;3.08;2.00;;;;;;;;;;7396310;19;20007;-71
2023/09/02 10:43:15;;;;;;;2.58;1.90;;;;;;;;;;7372885;19;20375;-70
2023/09/02 10:45:40;;;;;;;3.50;2.13;;;;;;;;;;7372177;19;20492;-71
2023/09/02 10:48:06;;;;;;;2.75;2.03;;;;;;;;;;7373526;19;20007;-71
2023/09/02 10:50:32;;;;;;;4.68;2.08;;;;;;;;;;7374791;19;20006;-71
2023/09/02 10:52:57;;;;;;;2.50;1.90;;;;;;;;;;7380724;19;19999;-71
2023/09/02 10:55:22;;;;;;;3.90;2.10;;;;;;;;;;7401376;19;20028;-70
2023/09/02 10:57:50;;;;;;;2.90;2.05;;;;;;;;;;7377285;19;19998;-72
2023/09/02 11:00:16;;;;;;;5.05;1.90;;;;;;;;;;7372732;19;20082;-70
2023/09/02 11:02:43;;;;;;;2.90;2.00;;;;;;;;;;7372011;19;20609;-71
2023/09/02 11:05:09;;;;;;;2.60;1.95;;;;;;;;;;7370211;19;20006;-71
2023/09/02 11:07:35;;;;;;;2.10;1.70;;;;;;;;;;7395477;19;20010;-71
2023/09/02 11:10:01;;;;;;;2.83;1.70;;;;;;;;;;7372621;19;20006;-70
2023/09/02 11:12:27;;;;;;;2.83;1.83;;;;;;;;;;7372377;19;20017;-70
2023/09/02 11:15:07;;;;;;;4.43;1.90;;;;;;;;;;7371827;19;19999;-70
2023/09/02 11:17:34;;;;;;;;;;;;;;;;;;7373506;19;20349;-70
2023/09/02 11:20:04;;;;;;;2.83;1.65;;;;;;;;;;7372996;19;19922;-70
2023/09/02 11:22:48;;;;;;;2.88;1.85;;;;;;;;;;7394559;19;20014;-71
2023/09/02 11:25:41;;;;;;;3.13;1.90;;;;;;;;;;7369135;19;20006;-71
2023/09/02 11:28:29;;;;;;;5.20;2.00;;;;;;;;;;7370185;19;20013;-71
2023/09/02 11:31:04;;;;;;;2.60;1.85;;;;;;;;;;7370864;19;20025;-72
2023/09/02 11:33:29;;;;;;;3.78;1.70;;;;;;;;;;7370490;19;20074;-71
2023/09/02 11:36:03;;;;;;;3.28;1.70;;;;;;;;;;7370302;19;20018;-72
2023/09/02 11:38:28;;;;;;;2.95;1.60;;;;;;;;;;7371498;19;20010;-72
2023/09/02 11:40:54;;;;;;;2.20;1.60;;;;;;;;;;7369686;19;20090;-71
2023/09/02 11:43:19;;;;;;;2.10;1.50;;;;;;;;;;7392983;19;20058;-72
2023/09/02 11:45:46;;;;;;;3.15;1.65;;;;;;;;;;7369398;19;20090;-70
2023/09/02 11:48:11;;;;;;;1.88;1.55;;;;;;;;;;7371410;19;20005;-71
2023/09/02 11:50:38;;;;;;;1.60;1.50;;;;;;;;;;7371268;19;20090;-71
2023/09/02 11:53:05;;;;;;;1.77;1.40;;;;;;;;;;7369828;19;20022;-71
2023/09/02 11:55:30;;;;;;;3.17;1.52;;;;;;;;;;7389995;19;20006;-70
2023/09/02 11:57:55;;;;;;;3.05;1.50;;;;;;;;;;7374948;19;20421;-71
2023/09/02 12:00:25;;;;;;;3.08;1.67;;;;;;;;;;7372057;19;20006;-71
2023/09/02 12:02:56;;;;;;;2.17;1.60;;;;;;;;;;7369026;19;20063;-71
2023/09/02 12:05:22;;;;;;;3.05;1.50;;;;;;;;;;7368606;19;20022;-70
2023/09/02 12:07:48;;;;;;;3.15;1.67;;;;;;;;;;7392332;19;20469;-70
2023/09/02 12:10:16;;;;;;;2.88;1.52;;;;;;;;;;7370588;19;20017;-71
2023/09/02 12:12:43;;;;;;;2.80;1.58;;;;;;;;;;7369158;19;20425;-70
2023/09/02 12:15:16;;;;;;;2.60;1.58;;;;;;;;;;7369029;19;20433;-71
2023/09/02 12:17:42;;;;;;;3.35;1.42;;;;;;;;;;7370533;19;20035;-72
2023/09/02 12:20:11;;;;;;;1.50;1.20;;;;;;;;;;7370489;19;20656;-70
2023/09/02 12:22:37;;;;;;;4.15;1.58;;;;;;;;;;7389687;19;20021;-69
2023/09/02 12:25:16;;;;;;;3.35;1.40;;;;;;;;;;7364052;19;19999;-70
2023/09/02 12:27:42;;;;;;;2.73;1.50;;;;;;;;;;7367001;19;20074;-70
2023/09/02 12:30:08;;;;;;;1.98;1.38;;;;;;;;;;7366545;19;20002;-70
2023/09/02 12:32:34;;;;;;;2.08;1.45;;;;;;;;;;7366505;19;20006;-70
2023/09/02 12:34:59;;;;;;;1.75;1.30;;;;;;;;;;7364959;19;20015;-70
2023/09/02 12:37:24;;;;;;;2.10;1.50;;;;;;;;;;7389831;19;19999;-69
2023/09/02 12:39:51;;;;;;;2.28;1.40;;;;;;;;;;7370766;19;19999;-71
2023/09/02 12:42:18;;;;;;;2.15;1.38;;;;;;;;;;7364165;19;20011;-70
2023/09/02 12:44:59;;;;;;;3.53;1.48;;;;;;;;;;7364046;19;20067;-70
2023/09/02 12:47:26;;;;;;;1.92;1.20;;;;;;;;;;7369342;19;20574;-71
2023/09/02 12:49:55;;;;;;;1.73;1.42;;;;;;;;;;7368030;19;20074;-70
2023/09/02 12:52:23;;;;;;;2.90;1.13;;;;;;;;;;7390190;19;20009;-70
2023/09/02 12:54:55;;;;;;;1.80;1.30;;;;;;;;;;7359705;19;20016;-70
2023/09/02 12:57:35;;;;;;;2.22;1.40;;;;;;;;;;7368673;19;20009;-70
2023/09/02 13:00:02;;;;;;;2.83;1.50;;;;;;;;;;7367566;19;20531;-70
2023/09/02 13:02:29;;;;;;;1.63;1.30;;;;;;;;;;7366932;19;20116;-70
2023/09/02 13:04:55;;;;;;;2.67;1.20;;;;;;;;;;7365760;19;20047;-69
2023/09/02 13:07:21;;;;;;;2.28;1.40;;;;;;;;;;7389678;19;20128;-70
2023/09/02 13:09:48;;;;;;;1.52;1.20;;;;;;;;;;7368641;19;20111;-70
2023/09/02 13:12:13;;;;;;;2.67;1.40;;;;;;;;;;7366460;19;20040;-69
2023/09/02 13:14:39;;;;;;;2.00;1.40;;;;;;;;;;7355925;19;20109;-69
2023/09/02 13:17:05;;;;;;;1.50;1.30;;;;;;;;;;7354159;19;20110;-69
2023/09/02 13:19:31;;;;;;;1.30;1.10;;;;;;;;;;7362235;19;20003;-70
2023/09/02 13:21:56;;;;;;;2.67;1.45;;;;;;;;;;7361875;19;20007;-70
2023/09/02 13:24:25;;;;;;;1.50;1.20;;;;;;;;;;7368034;19;20018;-71
2023/09/02 13:26:51;;;;;;;2.35;1.15;;;;;;;;;;7355682;19;20011;-70
2023/09/02 13:29:17;;;;;;;3.08;1.30;;;;;;;;;;7361754;19;20011;-70
2023/09/02 13:31:44;;;;;;;2.85;1.25;;;;;;;;;;7383973;19;20354;-70
2023/09/02 13:34:23;;;;;;;1.90;1.23;;;;;;;;;;7362958;19;20015;-71
2023/09/02 13:36:49;;;;;;;1.40;1.30;;;;;;;;;;7362837;19;20766;-71
2023/09/02 13:39:14;;;;;;;2.67;1.30;;;;;;;;;;7363322;19;20006;-71
2023/09/02 13:41:39;;;;;;;1.35;1.15;;;;;;;;;;7351768;19;20007;-71
2023/09/02 13:44:08;;;;;;;1.65;1.17;;;;;;;;;;7361411;19;20468;-70
2023/09/02 13:46:34;;;;;;;1.13;1.02;;;;;;;;;;7384906;19;20010;-70
2023/09/02 13:48:59;;;;;;;2.72;1.50;;;;;;;;;;7364285;19;20010;-71
2023/09/02 13:51:24;;;;;;;1.55;1.20;;;;;;;;;;7364712;19;20497;-70
2023/09/02 13:53:50;;;;;;;1.77;1.10;;;;;;;;;;7361504;19;20002;-70
2023/09/02 13:56:15;;;;;;;1.83;1.20;;;;;;;;;;7365211;19;20594;-70
2023/09/02 13:58:42;;;;;;;1.63;1.27;;;;;;;;;;7385618;19;20011;-70
2023/09/02 14:01:07;;;;;;;1.85;1.30;;;;;;;;;;7361470;19;20014;-70
2023/09/02 14:03:32;;;;;;;1.85;1.17;;;;;;;;;;7365875;19;20006;-70
2023/09/02 14:06:01;;;;;;;1.60;1.40;;;;;;;;;;7368955;19;20017;-70
2023/09/02 14:08:36;;;;;;;2.88;1.10;;;;;;;;;;7371073;19;20002;-70
2023/09/02 14:11:03;;;;;;;1.42;1.23;;;;;;;;;;7370372;19;20794;-70
2023/09/02 14:13:34;;;;;;;2.45;1.35;;;;;;;;;;7390114;19;19999;-70
2023/09/02 14:16:00;;;;;;;3.03;1.40;;;;;;;;;;7368308;19;20066;-69
2023/09/02 14:18:25;;;;;;;1.60;1.40;;;;;;;;;;7370340;19;20045;-70
2023/09/02 14:20:50;;;;;;;1.83;1.40;;;;;;;;;;7370209;19;20115;-70
2023/09/02 14:23:16;;;;;;;2.08;1.33;;;;;;;;;;7369831;19;20010;-72
2023/09/02 14:25:41;;;;;;;3.00;1.35;;;;;;;;;;7389355;19;20009;-69
2023/09/02 14:28:07;;;;;;;2.05;1.35;;;;;;;;;;7370237;19;20006;-70
2023/09/02 14:30:32;;;;;;;1.70;1.30;;;;;;;;;;7370058;19;20500;-69
2023/09/02 14:32:59;;;;;;;2.08;1.30;;;;;;;;;;7368683;19;20342;-73
2023/09/02 14:35:24;;;;;;;2.75;1.40;;;;;;;;;;7367648;19;20011;-73
2023/09/02 14:37:49;;;;;;;4.38;1.42;;;;;;;;;;7383858;19;20513;-76
2023/09/02 14:40:14;;;;;;;3.33;1.60;;;;;;;;;;7381927;19;20457;-73